Time;durP1;ratioP1;P1;durP2;ratioP2;P2;SDS_P1;SDS_P2;PMS_P1;PMS_P2;Temp;Humidity;BMP_temperature;BMP_pressure;BME280_temperature;BME280_humidity;BME280_pressure;Samples;Min_cycle;Max_cycle;Signal;HPM_P1;HPM_P2
2022/12/21 00:00:31;;;;;;;36.33;17.70;;;5.80;99.90;;;;;;5248809;28;20527;-46
2022/12/21 00:03:02;;;;;;;43.40;19.60;;;5.70;99.90;;;;;;5267415;28;20208;-47
2022/12/21 00:05:33;;;;;;;44.93;20.53;;;5.60;99.90;;;;;;5258228;28;20196;-47
2022/12/21 00:08:04;;;;;;;36.13;19.50;;;5.70;99.90;;;;;;5268899;28;20223;-48
2022/12/21 00:10:34;;;;;;;56.80;21.40;;;5.50;99.90;;;;;;5263829;28;20212;-49
2022/12/21 00:13:06;;;;;;;40.10;19.07;;;5.60;99.90;;;;;;5257387;28;20568;-48
2022/12/21 00:15:36;;;;;;;43.83;20.70;;;5.60;99.90;;;;;;5249347;28;20186;-48
2022/12/21 00:18:07;;;;;;;43.47;21.33;;;5.50;99.90;;;;;;5264039;28;20771;-48
2022/12/21 00:20:38;;;;;;;46.90;21.53;;;5.30;99.90;;;;;;5256908;28;20214;-48
2022/12/21 00:23:09;;;;;;;58.17;21.53;;;5.30;99.90;;;;;;5280259;28;20613;-47
2022/12/21 00:25:39;;;;;;;48.87;22.30;;;5.40;99.90;;;;;;5266792;28;20589;-47
2022/12/21 00:28:10;;;;;;;54.00;23.87;;;5.20;99.90;;;;;;5255620;28;20188;-48
2022/12/21 00:30:41;;;;;;;53.50;24.20;;;5.20;99.90;;;;;;5270372;28;20176;-48
2022/12/21 00:33:11;;;;;;;54.07;24.03;;;5.10;99.90;;;;;;5268911;28;20201;-49
2022/12/21 00:35:50;;;;;;;51.40;22.20;;;5.20;99.90;;;;;;5265840;28;20270;-51
2022/12/21 00:38:21;;;;;;;56.57;25.27;;;5.30;99.90;;;;;;5266734;28;20212;-47
2022/12/21 00:40:56;;;;;;;61.20;26.60;;;5.20;99.90;;;;;;5268720;28;20520;-49
2022/12/21 00:43:28;;;;;;;64.53;26.00;;;5.20;99.90;;;;;;5259807;28;20229;-48
2022/12/21 00:45:59;;;;;;;63.13;25.53;;;5.00;99.90;;;;;;5253540;28;20554;-50
2022/12/21 00:48:31;;;;;;;62.53;27.87;;;5.00;99.90;;;;;;5269274;28;20999;-47
2022/12/21 00:51:06;;;;;;;49.87;23.37;;;5.20;99.90;;;;;;5269214;28;20583;-47
2022/12/21 00:53:37;;;;;;;71.70;26.77;;;5.30;99.90;;;;;;5269468;28;20852;-47
2022/12/21 00:56:09;;;;;;;66.53;25.13;;;5.20;99.90;;;;;;5264141;28;20432;-47
2022/12/21 00:58:40;;;;;;;63.27;24.50;;;5.20;99.90;;;;;;5264824;28;20189;-47
2022/12/21 01:01:21;;;;;;;71.33;25.43;;;5.30;99.90;;;;;;5259224;28;20447;-48
2022/12/21 01:03:53;;;;;;;52.27;23.20;;;5.30;99.90;;;;;;5265098;28;20455;-46
2022/12/21 01:06:33;;;;;;;61.20;25.30;;;5.20;99.90;;;;;;5263036;28;20643;-49
2022/12/21 01:09:05;;;;;;;68.30;27.40;;;5.30;99.90;;;;;;5248013;28;20422;-47
2022/12/21 01:11:36;;;;;;;76.10;29.40;;;5.30;99.90;;;;;;5257891;28;20428;-46
2022/12/21 01:14:07;;;;;;;56.00;23.20;;;5.20;99.90;;;;;;5255279;28;21017;-48
2022/12/21 01:16:37;;;;;;;59.53;27.83;;;5.20;99.90;;;;;;5268681;28;20184;-48
2022/12/21 01:19:10;;;;;;;66.77;27.77;;;5.40;99.90;;;;;;5262981;28;20211;-48
2022/12/21 01:21:40;;;;;;;43.67;22.70;;;5.20;99.90;;;;;;5260502;28;20227;-47
2022/12/21 01:24:12;;;;;;;53.40;24.13;;;5.20;99.90;;;;;;5269255;28;20967;-47
2022/12/21 01:26:43;;;;;;;63.00;26.00;;;5.40;99.90;;;;;;5257492;28;20218;-47
2022/12/21 01:29:14;;;;;;;59.17;26.93;;;5.40;99.90;;;;;;5260477;28;20426;-47
2022/12/21 01:31:45;;;;;;;59.57;25.53;;;5.30;99.90;;;;;;5267614;28;20181;-47
2022/12/21 01:34:15;;;;;;;74.77;29.63;;;5.30;99.90;;;;;;5262805;28;20280;-47
2022/12/21 01:36:46;;;;;;;65.30;26.87;;;5.30;99.90;;;;;;5266803;28;20250;-46
2022/12/21 01:39:17;;;;;;;53.03;24.63;;;5.10;99.90;;;;;;5248149;28;20214;-48
2022/12/21 01:41:48;;;;;;;55.57;26.10;;;5.30;99.90;;;;;;5252256;28;20189;-49
2022/12/21 01:44:43;;;;;;;66.40;26.17;;;5.40;99.90;;;;;;5252944;28;20248;-47
2022/12/21 01:47:19;;;;;;;64.40;27.20;;;5.20;99.90;;;;;;5249670;28;20708;-49
2022/12/21 01:50:01;;;;;;;47.77;22.50;;;5.30;99.90;;;;;;5259224;28;20486;-47
2022/12/21 01:52:32;;;;;;;46.17;21.67;;;5.30;99.90;;;;;;5261568;28;20803;-48
2022/12/21 01:55:05;;;;;;;72.23;27.30;;;5.30;99.90;;;;;;5268735;28;20455;-48
2022/12/21 01:57:36;;;;;;;55.83;25.67;;;5.20;99.90;;;;;;5272350;28;20769;-49
2022/12/21 02:00:09;;;;;;;71.50;25.93;;;5.30;99.90;;;;;;5272560;28;20433;-50
2022/12/21 02:02:49;;;;;;;54.93;25.13;;;5.30;99.90;;;;;;5266989;28;20430;-49
2022/12/21 02:05:29;;;;;;;55.47;25.00;;;5.30;99.90;;;;;;5260992;28;20511;-48
2022/12/21 02:08:03;;;;;;;68.87;26.20;;;5.20;99.90;;;;;;5257721;28;20430;-50
2022/12/21 02:10:34;;;;;;;51.27;23.87;;;5.20;99.90;;;;;;5244389;28;20496;-50
2022/12/21 02:13:10;;;;;;;50.57;25.13;;;5.30;99.90;;;;;;5265688;28;20453;-49
2022/12/21 02:15:58;;;;;;;64.87;26.80;;;5.30;99.90;;;;;;5269218;28;20418;-49
2022/12/21 02:18:53;;;;;;;62.33;25.97;;;5.20;99.90;;;;;;5262127;28;20420;-50
2022/12/21 02:21:31;;;;;;;57.50;25.40;;;5.20;99.90;;;;;;5257228;28;20470;-49
2022/12/21 02:24:18;;;;;;;59.40;23.27;;;5.20;99.90;;;;;;5267096;28;20467;-49
2022/12/21 02:27:02;;;;;;;72.33;25.77;;;5.10;99.90;;;;;;5258593;28;20471;-49
2022/12/21 02:29:55;;;;;;;61.03;25.60;;;5.20;99.90;;;;;;5255116;28;20935;-48
2022/12/21 02:32:46;;;;;;;66.07;26.60;;;5.20;99.90;;;;;;5264945;28;20525;-50
2022/12/21 02:35:45;;;;;;;65.30;28.50;;;5.10;99.90;;;;;;5272824;28;20454;-51
2022/12/21 02:38:31;;;;;;;72.50;28.20;;;5.10;99.90;;;;;;5251018;28;20432;-49
2022/12/21 02:41:36;;;;;;;78.43;29.33;;;5.20;99.90;;;;;;5258413;28;20435;-49
2022/12/21 02:44:44;;;;;;;57.33;24.57;;;5.30;99.90;;;;;;5262010;28;20458;-48
2022/12/21 02:47:40;;;;;;;61.87;22.90;;;5.30;99.90;;;;;;5252758;28;20484;-49
2022/12/21 02:50:15;;;;;;;42.10;23.90;;;5.30;99.90;;;;;;5271187;28;20446;-50
2022/12/21 02:53:05;;;;;;;51.17;23.47;;;5.40;99.90;;;;;;5259839;28;20433;-49
2022/12/21 02:55:36;;;;;;;69.53;24.47;;;5.30;99.90;;;;;;5255158;28;20443;-49
2022/12/21 02:58:16;;;;;;;58.03;25.20;;;5.40;99.90;;;;;;5261867;28;20953;-49
2022/12/21 03:00:53;;;;;;;87.87;30.70;;;5.30;99.90;;;;;;5254948;28;20517;-48
2022/12/21 03:03:52;;;;;;;51.60;25.90;;;5.10;99.90;;;;;;5250986;28;20440;-49
2022/12/21 03:06:38;;;;;;;78.27;29.70;;;5.30;99.90;;;;;;5250240;28;20554;-50
2022/12/21 03:09:36;;;;;;;72.27;28.47;;;5.20;99.90;;;;;;5251597;28;20411;-51
2022/12/21 03:12:18;;;;;;;54.77;26.10;;;5.20;99.90;;;;;;5269420;28;20950;-50
2022/12/21 03:14:54;;;;;;;74.47;31.23;;;5.30;99.90;;;;;;5259069;28;20503;-51
2022/12/21 03:17:38;;;;;;;58.70;25.17;;;5.20;99.90;;;;;;5257841;28;20442;-49
2022/12/21 03:20:30;;;;;;;70.87;28.27;;;5.10;99.90;;;;;;5268981;28;20462;-49
2022/12/21 03:23:16;;;;;;;59.47;27.33;;;5.10;99.90;;;;;;5267139;28;20462;-50
2022/12/21 03:25:54;;;;;;;75.27;29.70;;;5.10;99.90;;;;;;5257881;28;20456;-49
2022/12/21 03:28:30;;;;;;;68.93;26.10;;;5.00;99.90;;;;;;5265099;28;20438;-50
2022/12/21 03:31:09;;;;;;;64.53;28.20;;;5.00;99.90;;;;;;5259441;28;20518;-50
2022/12/21 03:33:45;;;;;;;84.57;30.47;;;5.10;99.90;;;;;;5263998;28;20438;-49
2022/12/21 03:36:59;;;;;;;64.60;27.50;;;5.20;99.90;;;;;;5266157;28;20792;-50
2022/12/21 03:39:31;;;;;;;60.13;24.93;;;5.20;99.90;;;;;;5176713;28;20438;-50
2022/12/21 03:42:11;;;;;;;80.43;29.90;;;5.20;99.90;;;;;;5181282;28;20463;-51
2022/12/21 03:44:51;;;;;;;63.80;29.20;;;5.20;99.90;;;;;;5216027;28;20987;-49
2022/12/21 03:47:29;;;;;;;57.97;27.07;;;5.20;99.90;;;;;;5257183;28;20494;-50
2022/12/21 03:50:03;;;;;;;75.47;29.50;;;5.20;99.90;;;;;;5266993;28;20436;-50
2022/12/21 03:52:46;;;;;;;80.27;28.87;;;5.20;99.90;;;;;;5259462;28;20972;-50
2022/12/21 03:55:24;;;;;;;80.30;28.90;;;5.20;99.90;;;;;;5266282;28;20438;-50
2022/12/21 03:57:56;;;;;;;60.20;26.70;;;5.20;99.90;;;;;;5259737;28;20467;-49
2022/12/21 04:00:33;;;;;;;43.10;21.43;;;5.10;99.90;;;;;;5257889;28;20988;-49
2022/12/21 04:03:23;;;;;;;48.33;23.97;;;5.00;99.90;;;;;;5266083;28;20457;-50
2022/12/21 04:06:03;;;;;;;69.90;26.10;;;5.20;99.90;;;;;;5264782;28;20565;-49
2022/12/21 04:08:36;;;;;;;63.87;26.83;;;5.20;99.90;;;;;;5258426;28;20438;-49
2022/12/21 04:12:35;;;;;;;82.60;29.83;;;5.20;99.90;;;;;;5253921;28;20445;-49
2022/12/21 04:13:58;;;;;;;65.77;26.57;;;5.20;99.90;;;;;;5253311;28;20940;-49
2022/12/21 04:16:28;;;;;;;68.40;26.60;;;5.10;99.90;;;;;;5262413;28;20978;-50
2022/12/21 04:21:48;;;;;;;57.47;26.37;;;5.30;99.90;;;;;;5256830;28;20186;-50
2022/12/21 04:30:00;;;;;;;65.33;28.30;;;5.20;99.90;;;;;;5265601;28;20450;-48
2022/12/21 04:32:31;;;;;;;56.03;24.27;;;5.20;99.90;;;;;;5256148;28;20435;-50
2022/12/21 04:35:02;;;;;;;58.00;25.83;;;5.10;99.90;;;;;;5254537;28;20647;-51
2022/12/21 04:37:35;;;;;;;63.50;28.23;;;5.10;99.90;;;;;;5254427;28;20185;-49
2022/12/21 04:40:06;;;;;;;94.13;32.90;;;5.10;99.90;;;;;;5267333;28;20180;-49
2022/12/21 04:42:40;;;;;;;86.50;30.53;;;5.20;99.90;;;;;;5258153;28;20445;-48
2022/12/21 04:45:11;;;;;;;55.93;26.80;;;5.20;99.90;;;;;;5268076;28;20868;-50
2022/12/21 04:47:42;;;;;;;110.80;35.23;;;5.20;99.90;;;;;;5267394;28;20434;-50
2022/12/21 04:50:12;;;;;;;74.67;28.33;;;5.30;99.90;;;;;;5261339;28;20264;-49
2022/12/21 04:52:43;;;;;;;74.30;30.10;;;5.20;99.90;;;;;;5261186;28;20177;-49
2022/12/21 04:55:14;;;;;;;59.13;26.30;;;5.40;99.90;;;;;;5254946;28;20185;-50
2022/12/21 04:57:44;;;;;;;63.23;27.17;;;5.30;99.90;;;;;;5265371;28;20216;-50
2022/12/21 05:00:16;;;;;;;57.67;27.00;;;5.30;99.90;;;;;;5249991;28;20581;-49
2022/12/21 05:02:46;;;;;;;104.73;32.60;;;5.30;99.90;;;;;;5251849;28;20190;-50
2022/12/21 05:05:17;;;;;;;113.57;34.30;;;5.30;99.90;;;;;;5255147;28;20480;-51
2022/12/21 05:07:48;;;;;;;56.33;24.77;;;5.30;99.90;;;;;;5255188;28;20271;-50
2022/12/21 05:10:19;;;;;;;54.30;25.80;;;5.30;99.90;;;;;;5254248;28;20199;-50
2022/12/21 05:12:49;;;;;;;57.50;25.47;;;5.20;99.90;;;;;;5259443;28;20519;-49
2022/12/21 05:15:20;;;;;;;89.07;31.93;;;5.30;99.90;;;;;;5263587;28;20216;-49
2022/12/21 05:17:51;;;;;;;73.37;30.60;;;5.30;99.90;;;;;;5261649;28;20196;-51
2022/12/21 05:20:21;;;;;;;74.87;26.53;;;5.30;99.90;;;;;;5265404;28;20238;-50
2022/12/21 05:22:52;;;;;;;95.30;31.67;;;5.30;99.90;;;;;;5259246;28;20220;-50
2022/12/21 05:25:23;;;;;;;72.43;29.67;;;5.30;99.90;;;;;;5254897;28;20203;-50
2022/12/21 05:27:53;;;;;;;86.07;30.70;;;5.30;99.90;;;;;;5252899;28;20339;-49
2022/12/21 05:30:24;;;;;;;118.67;35.47;;;5.30;99.90;;;;;;5271705;28;20202;-50
2022/12/21 05:32:55;;;;;;;74.83;28.77;;;5.30;99.90;;;;;;5261999;28;20186;-50
2022/12/21 05:35:25;;;;;;;106.80;35.80;;;5.30;99.90;;;;;;5262303;28;20580;-49
2022/12/21 05:37:56;;;;;;;67.83;27.67;;;5.40;99.90;;;;;;5257896;28;20178;-51
2022/12/21 05:40:27;;;;;;;88.73;31.20;;;5.40;99.90;;;;;;5254070;28;20638;-49
2022/12/21 05:42:57;;;;;;;109.57;35.30;;;5.30;99.90;;;;;;5269008;28;20324;-49
2022/12/21 05:45:28;;;;;;;86.07;31.47;;;5.40;99.90;;;;;;5252146;28;20212;-50
2022/12/21 05:47:59;;;;;;;70.40;26.40;;;5.40;99.90;;;;;;5269250;28;20276;-48
2022/12/21 05:50:29;;;;;;;83.63;31.40;;;5.40;99.90;;;;;;5260901;28;20213;-48
2022/12/21 05:53:00;;;;;;;107.03;36.00;;;5.40;99.90;;;;;;5253348;28;20197;-49
2022/12/21 05:55:31;;;;;;;52.27;26.77;;;5.40;99.90;;;;;;5267544;28;20180;-50
2022/12/21 05:58:02;;;;;;;95.80;33.40;;;5.40;99.90;;;;;;5265343;28;20234;-49
2022/12/21 06:00:32;;;;;;;74.47;29.93;;;5.40;99.90;;;;;;5259057;28;20200;-49
2022/12/21 06:03:05;;;;;;;85.50;32.57;;;5.40;99.90;;;;;;5257084;28;20572;-50
2022/12/21 06:05:36;;;;;;;91.47;33.20;;;5.50;99.90;;;;;;5268910;28;20202;-49
2022/12/21 06:08:07;;;;;;;63.27;29.63;;;5.50;99.90;;;;;;5260379;28;20427;-50
2022/12/21 06:10:38;;;;;;;128.73;45.63;;;5.50;99.90;;;;;;5269312;28;20798;-50
2022/12/21 06:13:08;;;;;;;72.17;33.00;;;5.50;99.90;;;;;;5268233;28;20197;-49
2022/12/21 06:15:39;;;;;;;70.03;29.77;;;5.60;99.90;;;;;;5265577;28;20414;-50
2022/12/21 06:18:10;;;;;;;68.20;27.33;;;5.50;99.90;;;;;;5263842;28;20234;-50
2022/12/21 06:20:41;;;;;;;75.87;31.60;;;5.60;99.90;;;;;;5269764;28;20181;-48
2022/12/21 06:23:12;;;;;;;74.93;30.27;;;5.60;99.90;;;;;;5262615;28;20216;-49
2022/12/21 06:25:43;;;;;;;91.50;30.93;;;5.60;99.90;;;;;;5265728;28;20689;-50
2022/12/21 06:28:13;;;;;;;112.67;38.00;;;5.60;99.90;;;;;;5254114;28;20185;-50
2022/12/21 06:30:44;;;;;;;71.00;29.67;;;5.60;99.90;;;;;;5258350;28;20498;-49
2022/12/21 06:33:15;;;;;;;68.73;26.90;;;5.60;99.90;;;;;;5269205;28;20208;-49
2022/12/21 06:35:46;;;;;;;57.40;27.10;;;5.60;99.90;;;;;;5269291;28;20265;-50
2022/12/21 06:38:17;;;;;;;59.23;28.87;;;5.70;99.90;;;;;;5262522;28;20292;-49
2022/12/21 06:40:56;;;;;;;102.33;40.40;;;5.60;99.90;;;;;;5265993;28;20514;-50
2022/12/21 06:43:29;;;;;;;120.50;41.23;;;5.70;99.90;;;;;;5267412;28;20233;-50
2022/12/21 06:46:03;;;;;;;81.97;32.80;;;5.80;99.90;;;;;;5247484;28;20987;-48
2022/12/21 06:48:35;;;;;;;138.57;42.43;;;5.70;99.90;;;;;;5268497;28;20452;-49
2022/12/21 06:51:18;;;;;;;92.20;32.70;;;5.70;99.90;;;;;;5268653;28;20461;-49
2022/12/21 06:53:52;;;;;;;87.93;34.77;;;5.70;99.90;;;;;;5267627;28;20455;-49
2022/12/21 06:56:25;;;;;;;118.57;38.53;;;5.80;99.90;;;;;;5269056;28;20443;-50
2022/12/21 06:58:56;;;;;;;66.77;29.90;;;5.80;99.90;;;;;;5249345;28;20486;-49
2022/12/21 07:01:32;;;;;;;83.53;32.37;;;5.80;99.90;;;;;;5267498;28;20439;-49
2022/12/21 07:04:03;;;;;;;72.40;29.40;;;5.80;99.90;;;;;;5265204;28;20447;-49
2022/12/21 07:06:34;;;;;;;126.43;38.03;;;5.80;99.90;;;;;;5267538;28;20817;-49
2022/12/21 07:09:05;;;;;;;89.97;35.07;;;5.80;99.90;;;;;;5267490;28;20453;-48
2022/12/21 07:11:35;;;;;;;62.83;28.53;;;5.80;99.90;;;;;;5268480;28;20428;-49
2022/12/21 07:14:06;;;;;;;49.53;27.47;;;5.80;99.90;;;;;;5265369;28;20205;-49
2022/12/21 07:16:37;;;;;;;81.53;32.60;;;5.90;99.90;;;;;;5268131;28;20192;-49
2022/12/21 07:19:07;;;;;;;105.77;39.00;;;5.80;99.90;;;;;;5269644;28;20678;-48
2022/12/21 07:21:38;;;;;;;144.13;43.90;;;5.90;99.90;;;;;;5268156;28;20552;-50
2022/12/21 07:24:09;;;;;;;68.40;29.07;;;5.80;99.90;;;;;;5262985;28;20208;-49
2022/12/21 07:26:40;;;;;;;85.17;33.50;;;5.80;99.90;;;;;;5266015;28;20547;-50
2022/12/21 07:29:14;;;;;;;96.83;37.07;;;5.90;99.90;;;;;;5267288;28;20582;-50
2022/12/21 07:31:45;;;;;;;97.90;37.00;;;5.90;99.90;;;;;;5283760;28;20181;-49
2022/12/21 07:34:16;;;;;;;72.53;32.00;;;6.00;99.90;;;;;;5269476;28;20447;-51
2022/12/21 07:36:46;;;;;;;141.67;46.23;;;6.00;99.90;;;;;;5268381;28;20451;-56
2022/12/21 07:39:17;;;;;;;67.57;29.73;;;6.00;99.90;;;;;;5264716;28;20909;-50
2022/12/21 07:41:48;;;;;;;66.47;30.00;;;6.00;99.90;;;;;;5268444;28;20693;-51
2022/12/21 07:44:19;;;;;;;76.57;33.33;;;6.00;99.90;;;;;;5267146;28;20229;-49
2022/12/21 07:46:51;;;;;;;80.67;31.97;;;6.00;99.90;;;;;;5267894;28;20213;-49
2022/12/21 07:49:21;;;;;;;85.03;38.97;;;6.10;99.90;;;;;;5264724;28;20260;-49
2022/12/21 07:51:52;;;;;;;77.67;33.43;;;6.10;99.90;;;;;;5257159;28;20970;-50
2022/12/21 07:54:23;;;;;;;91.23;36.80;;;6.10;99.90;;;;;;5266488;28;20205;-50
2022/12/21 07:56:53;;;;;;;147.73;46.33;;;6.10;99.90;;;;;;5275319;22;20256;-48
2022/12/21 07:59:24;;;;;;;72.03;31.50;;;6.10;99.90;;;;;;5279734;27;20263;-50
2022/12/21 08:01:55;;;;;;;153.37;49.50;;;6.20;99.90;;;;;;5276864;28;20199;-51
2022/12/21 08:04:25;;;;;;;77.80;33.90;;;6.30;99.90;;;;;;5272102;28;20431;-49
2022/12/21 08:06:56;;;;;;;57.70;29.07;;;6.20;99.90;;;;;;5270929;27;20248;-51
2022/12/21 08:09:27;;;;;;;167.33;50.10;;;6.20;99.90;;;;;;5261301;28;20189;-48
2022/12/21 08:11:57;;;;;;;88.63;36.63;;;6.30;99.90;;;;;;5258048;28;20174;-50
2022/12/21 08:14:28;;;;;;;76.23;30.40;;;6.30;99.90;;;;;;5264550;28;20193;-51
2022/12/21 08:16:59;;;;;;;98.87;36.73;;;6.30;99.90;;;;;;5259577;28;20198;-51
2022/12/21 08:19:30;;;;;;;74.33;31.63;;;6.30;99.90;;;;;;5263062;28;20605;-49
2022/12/21 08:22:01;;;;;;;103.73;36.30;;;6.40;99.90;;;;;;5259375;28;20468;-52
2022/12/21 08:24:31;;;;;;;63.43;27.70;;;6.40;99.90;;;;;;5262601;28;20630;-52
2022/12/21 08:27:02;;;;;;;64.17;27.73;;;6.40;99.90;;;;;;5264782;28;20243;-51
2022/12/21 08:29:32;;;;;;;118.33;41.10;;;6.40;99.90;;;;;;5258706;28;20189;-49
2022/12/21 08:32:04;;;;;;;53.60;26.87;;;6.40;99.90;;;;;;5260856;28;20226;-51
2022/12/21 08:34:34;;;;;;;87.97;37.60;;;6.50;99.90;;;;;;5271737;28;20169;-51
2022/12/21 08:37:05;;;;;;;93.93;34.97;;;6.60;99.90;;;;;;5256543;28;20451;-52
2022/12/21 08:39:35;;;;;;;67.77;33.30;;;6.50;99.90;;;;;;5255621;28;20293;-52
2022/12/21 08:42:06;;;;;;;111.80;39.80;;;6.70;99.90;;;;;;5277887;27;20554;-51
2022/12/21 08:44:37;;;;;;;76.50;32.67;;;6.70;99.90;;;;;;5260239;28;20178;-49
2022/12/21 08:47:07;;;;;;;65.07;32.90;;;6.70;99.90;;;;;;5258758;28;20229;-53
2022/12/21 08:49:38;;;;;;;130.00;44.07;;;6.70;99.90;;;;;;5256686;28;20245;-50
2022/12/21 08:52:08;;;;;;;85.60;37.90;;;6.70;99.90;;;;;;5249290;28;20212;-53
2022/12/21 08:54:39;;;;;;;64.53;33.40;;;6.70;99.90;;;;;;5258063;28;20199;-53
2022/12/21 08:57:10;;;;;;;65.00;30.70;;;6.90;99.90;;;;;;5254708;28;20213;-49
2022/12/21 08:59:41;;;;;;;114.70;39.20;;;7.00;99.90;;;;;;5264004;28;20181;-51
2022/12/21 09:02:11;;;;;;;80.47;33.33;;;6.90;99.90;;;;;;5256278;28;20241;-49
2022/12/21 09:04:42;;;;;;;67.10;31.07;;;6.90;99.90;;;;;;5263825;28;20244;-50
2022/12/21 09:07:13;;;;;;;61.57;28.60;;;6.80;99.90;;;;;;5256424;28;20224;-51
2022/12/21 09:09:44;;;;;;;82.27;34.70;;;6.90;99.90;;;;;;5256448;28;20174;-51
2022/12/21 09:12:15;;;;;;;60.30;32.40;;;6.80;99.90;;;;;;5257178;28;20193;-50
2022/12/21 09:14:45;;;;;;;91.37;37.00;;;6.90;99.90;;;;;;5264291;28;20435;-51
2022/12/21 09:17:16;;;;;;;77.87;33.07;;;7.00;99.90;;;;;;5262594;28;20623;-50
2022/12/21 09:19:47;;;;;;;86.63;36.10;;;6.90;99.90;;;;;;5266404;28;20194;-50
2022/12/21 09:22:17;;;;;;;55.13;28.60;;;6.80;99.90;;;;;;5258714;28;20181;-51
2022/12/21 09:24:48;;;;;;;55.27;30.20;;;6.80;99.90;;;;;;5262254;28;20593;-52
2022/12/21 09:27:19;;;;;;;60.20;29.10;;;6.90;99.90;;;;;;5264267;28;20205;-50
2022/12/21 09:29:49;;;;;;;88.87;35.53;;;7.00;99.90;;;;;;5267654;28;20196;-52
2022/12/21 09:32:20;;;;;;;80.30;34.57;;;6.90;99.90;;;;;;5276556;28;20967;-50
2022/12/21 09:34:51;;;;;;;79.93;35.20;;;7.00;99.90;;;;;;5260725;28;20181;-49
2022/12/21 09:37:22;;;;;;;70.77;30.73;;;7.00;99.90;;;;;;5257860;28;20246;-49
2022/12/21 09:39:52;;;;;;;88.03;37.07;;;7.00;99.90;;;;;;5275183;28;20292;-50
2022/12/21 09:42:44;;;;;;;98.30;41.43;;;7.10;99.90;;;;;;5268606;28;20235;-51
2022/12/21 09:45:31;;;;;;;73.87;36.97;;;7.10;99.90;;;;;;5275414;28;20661;-51
2022/12/21 09:48:11;;;;;;;88.20;41.87;;;7.00;99.90;;;;;;5264490;28;20458;-53
2022/12/21 09:50:53;;;;;;;61.20;33.07;;;7.00;99.90;;;;;;5267012;28;20445;-49
2022/12/21 09:53:47;;;;;;;109.43;42.03;;;7.10;99.90;;;;;;5260755;28;21483;-51
2022/12/21 09:56:22;;;;;;;105.13;47.90;;;7.00;99.90;;;;;;5274361;28;20497;-50
2022/12/21 09:58:55;;;;;;;105.57;40.20;;;7.00;99.90;;;;;;5264406;28;20446;-51
2022/12/21 10:01:54;;;;;;;60.40;33.57;;;7.00;99.90;;;;;;5264520;28;20435;-51
2022/12/21 10:04:30;;;;;;;61.60;32.70;;;7.00;99.90;;;;;;5259953;28;20428;-52
2022/12/21 10:07:22;;;;;;;108.70;42.77;;;7.10;99.90;;;;;;5264175;28;20473;-50
2022/12/21 10:10:02;;;;;;;78.87;39.83;;;7.00;99.90;;;;;;5263832;28;20827;-51
2022/12/21 10:12:39;;;;;;;96.23;41.47;;;7.10;99.90;;;;;;5267866;28;21038;-51
2022/12/21 10:15:26;;;;;;;136.00;46.57;;;7.10;99.90;;;;;;5267035;28;20427;-50
2022/12/21 10:18:20;;;;;;;76.50;34.50;;;7.00;99.90;;;;;;5271610;28;20454;-52
2022/12/21 10:21:20;;;;;;;55.30;30.97;;;7.00;99.90;;;;;;5264551;28;20958;-49
2022/12/21 10:23:53;;;;;;;89.50;34.33;;;7.00;99.90;;;;;;5273067;28;20442;-50
2022/12/21 10:26:28;;;;;;;60.13;30.20;;;7.00;99.90;;;;;;5262162;28;20470;-50
2022/12/21 10:29:12;;;;;;;64.43;30.70;;;7.00;99.90;;;;;;5253974;28;20431;-50
2022/12/21 10:31:45;;;;;;;41.60;24.60;;;7.10;99.90;;;;;;5256193;28;20435;-51
2022/12/21 10:34:24;;;;;;;64.90;31.37;;;7.00;99.90;;;;;;5257294;28;20508;-53
2022/12/21 10:37:00;;;;;;;97.83;36.43;;;7.10;99.90;;;;;;5268040;28;20500;-51
2022/12/21 10:39:30;;;;;;;69.63;31.47;;;7.10;99.90;;;;;;5267074;28;20525;-50
2022/12/21 10:42:06;;;;;;;66.80;33.87;;;7.20;99.90;;;;;;5262511;28;20550;-51
2022/12/21 10:44:40;;;;;;;67.67;32.80;;;7.20;99.90;;;;;;5262063;28;20273;-52
2022/12/21 10:47:18;;;;;;;72.10;31.33;;;7.10;99.90;;;;;;5263427;28;21616;-52
2022/12/21 10:50:03;;;;;;;68.20;32.60;;;7.20;99.90;;;;;;5267652;28;20424;-50
2022/12/21 10:52:33;;;;;;;52.00;28.90;;;7.20;99.90;;;;;;5262614;28;20947;-52
2022/12/21 10:55:23;;;;;;;70.40;33.40;;;7.40;99.90;;;;;;5260051;28;20438;-51
2022/12/21 10:58:24;;;;;;;66.07;29.70;;;7.50;99.90;;;;;;5264907;28;20238;-48
2022/12/21 11:01:03;;;;;;;51.60;26.97;;;7.30;99.90;;;;;;5260217;28;20453;-51
2022/12/21 11:03:36;;;;;;;59.53;30.17;;;7.30;99.90;;;;;;5269973;28;20439;-51
2022/12/21 11:06:19;;;;;;;64.50;26.90;;;7.40;99.90;;;;;;5278719;28;20996;-50
2022/12/21 11:08:51;;;;;;;61.00;29.77;;;7.30;99.90;;;;;;5277263;28;20540;-52
2022/12/21 11:11:35;;;;;;;67.77;32.10;;;7.50;99.90;;;;;;5271088;28;20438;-53
2022/12/21 11:14:14;;;;;;;56.00;30.07;;;7.40;99.90;;;;;;5276618;28;20438;-51
2022/12/21 11:16:45;;;;;;;64.93;33.77;;;7.50;99.90;;;;;;5278983;28;20961;-52
2022/12/21 11:19:21;;;;;;;54.50;29.10;;;7.60;99.90;;;;;;5277800;28;20442;-51
2022/12/21 11:21:55;;;;;;;59.80;29.83;;;7.60;99.90;;;;;;5273310;28;20744;-51
2022/12/21 11:24:28;;;;;;;58.93;29.30;;;7.50;99.90;;;;;;5269159;28;20443;-52
2022/12/21 11:27:12;;;;;;;60.47;29.03;;;7.50;99.90;;;;;;5267180;28;20562;-50
2022/12/21 11:29:54;;;;;;;55.23;29.27;;;7.50;99.90;;;;;;5272287;28;20418;-51
2022/12/21 11:32:28;;;;;;;53.20;27.30;;;7.50;99.90;;;;;;5281316;27;20461;-53
2022/12/21 11:35:03;;;;;;;71.30;29.70;;;7.50;99.90;;;;;;5266749;28;20761;-49
2022/12/21 11:37:37;;;;;;;51.20;28.33;;;7.50;99.90;;;;;;5280342;28;20495;-49
2022/12/21 11:40:11;;;;;;;51.47;30.03;;;7.50;99.90;;;;;;5270878;28;20512;-51
2022/12/21 11:42:59;;;;;;;55.97;29.93;;;7.70;99.90;;;;;;5266735;28;20478;-51
2022/12/21 11:46:09;;;;;;;57.07;27.43;;;7.70;99.90;;;;;;5273821;28;20437;-50
2022/12/21 11:48:59;;;;;;;61.77;30.47;;;7.80;99.90;;;;;;5268949;28;20461;-51
2022/12/21 11:51:53;;;;;;;56.67;30.00;;;7.80;99.90;;;;;;5277077;28;20495;-50
2022/12/21 11:54:27;;;;;;;62.37;32.33;;;7.70;99.90;;;;;;5275766;28;20429;-49
2022/12/21 11:57:31;;;;;;;53.47;28.10;;;7.60;99.90;;;;;;5277290;28;20479;-51
2022/12/21 12:00:12;;;;;;;47.77;28.23;;;7.80;99.90;;;;;;5267138;28;20447;-52
2022/12/21 12:02:52;;;;;;;47.37;28.80;;;7.90;99.90;;;;;;5272007;28;20439;-47
2022/12/21 12:05:56;;;;;;;43.47;25.27;;;7.90;99.90;;;;;;5272538;28;20479;-53
2022/12/21 12:08:27;;;;;;;55.00;30.27;;;7.90;99.90;;;;;;5267789;28;20459;-52
2022/12/21 12:11:23;;;;;;;63.63;30.63;;;7.70;99.90;;;;;;5274443;28;20818;-50
2022/12/21 12:14:23;;;;;;;62.63;30.77;;;7.90;99.90;;;;;;5270663;28;20215;-53
2022/12/21 12:17:03;;;;;;;67.03;29.60;;;7.70;99.90;;;;;;5270282;28;20483;-51
2022/12/21 12:19:44;;;;;;;51.87;28.20;;;7.80;99.90;;;;;;5262851;28;20466;-50
2022/12/21 12:22:23;;;;;;;43.50;24.90;;;7.80;99.90;;;;;;5253061;28;20550;-50
2022/12/21 12:24:57;;;;;;;51.60;27.70;;;8.10;99.90;;;;;;5257851;28;20954;-52
2022/12/21 12:27:38;;;;;;;40.33;24.60;;;8.00;99.90;;;;;;5251274;28;20478;-49
2022/12/21 12:30:22;;;;;;;55.27;27.13;;;7.80;99.90;;;;;;5261545;28;20445;-50
2022/12/21 12:33:28;;;;;;;46.27;22.80;;;7.70;99.90;;;;;;5258126;28;20439;-52
2022/12/21 12:36:05;;;;;;;43.30;24.80;;;7.80;99.90;;;;;;5259226;28;20443;-51
2022/12/21 12:39:10;;;;;;;48.87;24.97;;;7.80;99.90;;;;;;5259503;28;20460;-50
2022/12/21 12:42:00;;;;;;;55.50;28.60;;;7.80;99.90;;;;;;5259952;28;20452;-52
2022/12/21 12:44:55;;;;;;;55.50;28.47;;;7.70;99.90;;;;;;5261301;28;20436;-52
2022/12/21 12:47:47;;;;;;;56.50;27.90;;;7.70;99.90;;;;;;5257688;28;20475;-52
2022/12/21 12:50:26;;;;;;;49.23;27.83;;;7.70;99.90;;;;;;5260285;28;21028;-49
2022/12/21 12:52:59;;;;;;;45.73;25.60;;;7.80;99.90;;;;;;5267364;28;20443;-52
2022/12/21 12:55:45;;;;;;;83.27;35.73;;;7.80;99.90;;;;;;5263926;28;20428;-51
2022/12/21 12:58:41;;;;;;;43.47;26.87;;;7.90;99.90;;;;;;5265402;28;20467;-50
2022/12/21 13:01:21;;;;;;;47.17;27.60;;;7.90;99.90;;;;;;5262677;28;20443;-51
2022/12/21 13:03:55;;;;;;;47.10;25.67;;;8.00;99.90;;;;;;5268181;28;20930;-50
2022/12/21 13:07:12;;;;;;;61.43;28.63;;;7.90;99.90;;;;;;5258582;28;20470;-52
2022/12/21 13:10:15;;;;;;;45.43;26.20;;;7.90;99.90;;;;;;5248980;28;20456;-51
2022/12/21 13:13:00;;;;;;;45.43;25.37;;;7.90;99.90;;;;;;5263681;28;20797;-50
2022/12/21 13:15:57;;;;;;;38.90;25.03;;;7.90;99.90;;;;;;5263140;28;20436;-49
2022/12/21 13:18:48;;;;;;;50.80;25.90;;;8.10;99.90;;;;;;5274427;28;20549;-50
2022/12/21 13:21:21;;;;;;;41.30;25.13;;;7.90;99.90;;;;;;5259638;28;20999;-51
2022/12/21 13:24:09;;;;;;;40.43;25.23;;;8.00;99.90;;;;;;5262418;28;20921;-49
2022/12/21 13:26:50;;;;;;;43.10;26.50;;;8.20;99.90;;;;;;5275747;28;21163;-52
2022/12/21 13:29:26;;;;;;;33.63;22.37;;;8.10;99.90;;;;;;5263957;28;20459;-50
2022/12/21 13:32:03;;;;;;;50.00;28.37;;;8.10;99.90;;;;;;5271725;28;20516;-51